createdAt,value
2017-03-17T00:00:26.989Z,11.1
2017-03-17T00:01:28.833Z,11.1
2017-03-17T00:02:30.691Z,11.1
2017-03-17T00:03:32.544Z,11.1
2017-03-17T00:04:34.399Z,11.1
2017-03-17T00:05:36.252Z,11.1
2017-03-17T00:06:38.452Z,11
2017-03-17T00:07:40.298Z,11.1
2017-03-17T00:08:42.148Z,11
2017-03-17T00:09:43.998Z,11.1
2017-03-17T00:10:45.841Z,11.1
2017-03-17T00:11:47.694Z,11
2017-03-17T00:12:49.545Z,11
2017-03-17T00:13:51.422Z,11
2017-03-17T00:14:53.259Z,11
2017-03-17T00:15:55.114Z,11
2017-03-17T00:16:57.304Z,11
2017-03-17T00:17:59.483Z,11
2017-03-17T00:19:01.338Z,11
2017-03-17T00:20:03.188Z,11.1
2017-03-17T00:21:05.053Z,11
2017-03-17T00:22:07.240Z,11
2017-03-17T00:23:09.431Z,11
2017-03-17T00:24:11.287Z,11
2017-03-17T00:25:13.141Z,11
2017-03-17T00:26:14.997Z,11
2017-03-17T00:27:16.847Z,11
2017-03-17T00:28:18.707Z,11
2017-03-17T00:29:20.551Z,11
2017-03-17T00:30:22.406Z,11.1
2017-03-17T00:31:24.255Z,11
2017-03-17T00:32:26.102Z,11
2017-03-17T00:33:27.957Z,11
2017-03-17T00:34:29.813Z,11.1
2017-03-17T00:35:31.670Z,11.1
2017-03-17T00:36:33.510Z,11.1
2017-03-17T00:37:35.368Z,11
2017-03-17T00:38:37.217Z,11
2017-03-17T00:39:39.069Z,11.1
2017-03-17T00:40:40.918Z,11
2017-03-17T00:41:43.111Z,11
2017-03-17T00:42:44.958Z,11
2017-03-17T00:43:46.840Z,11
2017-03-17T00:44:48.696Z,11
2017-03-17T00:45:50.570Z,11
2017-03-17T00:46:52.429Z,11
2017-03-17T00:47:54.270Z,11
2017-03-17T00:48:56.131Z,11
2017-03-17T00:49:57.985Z,11
2017-03-17T00:50:59.834Z,11
2017-03-17T00:52:01.680Z,11
2017-03-17T00:53:03.530Z,11
2017-03-17T00:54:05.383Z,10.9
2017-03-17T00:55:07.239Z,10.9
2017-03-17T00:56:09.078Z,10.9
2017-03-17T00:57:10.929Z,10.9
2017-03-17T00:58:12.775Z,10.9
2017-03-17T00:59:14.625Z,10.8
2017-03-17T01:00:16.474Z,10.8
2017-03-17T01:01:18.331Z,10.8
2017-03-17T01:02:20.193Z,10.8
2017-03-17T01:03:22.059Z,10.8
2017-03-17T01:04:23.904Z,10.8
2017-03-17T01:05:25.758Z,10.8
2017-03-17T01:06:27.609Z,10.8
2017-03-17T01:07:29.460Z,10.8
2017-03-17T01:08:31.309Z,10.8
2017-03-17T01:09:33.173Z,10.8
2017-03-17T01:10:35.022Z,10.8
2017-03-17T01:11:36.874Z,10.8
2017-03-17T01:12:38.727Z,10.7
2017-03-17T01:13:40.916Z,10.8
2017-03-17T01:14:42.770Z,10.8
2017-03-17T01:15:44.624Z,10.8
2017-03-17T01:16:46.821Z,10.8
2017-03-17T01:17:48.660Z,10.8
2017-03-17T01:18:50.520Z,10.7
2017-03-17T01:19:52.374Z,10.7
2017-03-17T01:20:54.241Z,10.7
2017-03-17T01:21:56.431Z,10.7
2017-03-17T01:22:58.288Z,10.7
2017-03-17T01:24:00.474Z,10.7
2017-03-17T01:25:02.323Z,10.7
2017-03-17T01:26:04.169Z,10.7
2017-03-17T01:27:06.021Z,10.7
2017-03-17T01:28:07.878Z,10.7
2017-03-17T01:29:09.727Z,10.7
2017-03-17T01:30:11.605Z,10.7
2017-03-17T01:31:13.461Z,10.7
2017-03-17T01:32:15.313Z,10.7
2017-03-17T01:33:17.156Z,10.7
2017-03-17T01:34:19.017Z,10.7
2017-03-17T01:35:21.217Z,10.7
2017-03-17T01:36:23.404Z,10.7
2017-03-17T01:37:25.612Z,10.7
2017-03-17T01:38:27.459Z,10.7
2017-03-17T01:39:29.308Z,10.7
2017-03-17T01:40:31.162Z,10.7
2017-03-17T01:41:33.015Z,10.7
2017-03-17T01:42:34.863Z,10.6
2017-03-17T01:43:37.054Z,10.7
2017-03-17T01:44:38.907Z,10.7
2017-03-17T01:45:40.750Z,10.7
2017-03-17T01:46:42.597Z,10.6
2017-03-17T01:47:44.451Z,10.6
2017-03-17T01:48:46.295Z,10.6
2017-03-17T01:49:48.480Z,10.6
2017-03-17T01:50:50.320Z,10.6
2017-03-17T01:51:52.165Z,10.6
2017-03-17T01:52:54.009Z,10.6
2017-03-17T01:53:55.862Z,10.6
2017-03-17T01:54:57.706Z,10.6
2017-03-17T01:55:59.555Z,10.6
2017-03-17T01:57:01.407Z,10.6
2017-03-17T01:58:03.256Z,10.6
2017-03-17T01:59:05.107Z,10.6
2017-03-17T02:00:06.978Z,10.6
2017-03-17T02:01:08.822Z,10.6
2017-03-17T02:02:10.681Z,10.6
2017-03-17T02:03:12.522Z,10.5
2017-03-17T02:04:14.377Z,10.6
2017-03-17T02:05:16.221Z,10.6
2017-03-17T02:06:18.077Z,10.5
2017-03-17T02:07:19.933Z,10.6
2017-03-17T02:08:22.121Z,10.6
2017-03-17T02:09:23.966Z,10.6
2017-03-17T02:10:25.813Z,10.6
2017-03-17T02:11:27.664Z,10.5
2017-03-17T02:12:29.543Z,10.6
2017-03-17T02:13:31.399Z,10.6
2017-03-17T02:14:33.587Z,10.5
2017-03-17T02:15:35.429Z,10.6
2017-03-17T02:16:37.287Z,10.6
2017-03-17T02:17:39.477Z,10.6
2017-03-17T02:18:41.335Z,10.6
2017-03-17T02:19:43.187Z,10.6
2017-03-17T02:20:45.044Z,10.5
2017-03-17T02:21:46.900Z,10.5
2017-03-17T02:22:48.752Z,10.5
2017-03-17T02:23:50.602Z,10.5
2017-03-17T02:24:52.455Z,10.6
2017-03-17T02:25:54.306Z,10.6
2017-03-17T02:26:56.168Z,10.6
2017-03-17T02:27:58.012Z,10.6
2017-03-17T02:28:59.864Z,10.5
2017-03-17T02:30:01.711Z,10.5
2017-03-17T02:31:03.564Z,10.5
2017-03-17T02:32:05.745Z,10.5
2017-03-17T02:33:07.589Z,10.5
2017-03-17T02:34:09.433Z,10.4
2017-03-17T02:35:11.305Z,10.5
2017-03-17T02:36:13.590Z,10.5
2017-03-17T02:37:15.445Z,10.5
2017-03-17T02:38:17.299Z,10.5
2017-03-17T02:39:19.496Z,10.5
2017-03-17T02:40:21.345Z,10.5
2017-03-17T02:41:23.199Z,10.5
2017-03-17T02:42:25.043Z,10.5
2017-03-17T02:43:27.247Z,10.5
2017-03-17T02:44:29.769Z,10.4
2017-03-17T02:45:31.621Z,10.5
2017-03-17T02:46:33.469Z,10.5
2017-03-17T02:47:35.671Z,10.5
2017-03-17T02:48:37.539Z,10.5
2017-03-17T02:49:39.407Z,10.5
2017-03-17T02:50:41.599Z,10.5
2017-03-17T02:51:43.447Z,10.6
2017-03-17T02:52:45.986Z,10.6
2017-03-17T02:53:48.194Z,10.6
2017-03-17T02:54:50.403Z,10.6
2017-03-17T02:55:52.261Z,10.6
2017-03-17T02:56:54.446Z,10.6
2017-03-17T02:57:56.303Z,10.6
2017-03-17T02:58:59.859Z,10.7
2017-03-17T03:00:01.713Z,10.7
2017-03-17T03:01:03.556Z,10.7
2017-03-17T03:02:05.416Z,10.8
2017-03-17T03:03:07.271Z,10.8
2017-03-17T03:04:09.163Z,10.8
2017-03-17T03:05:11.354Z,10.8
2017-03-17T03:06:13.213Z,10.8
2017-03-17T03:07:15.064Z,10.8
2017-03-17T03:08:16.920Z,10.8
2017-03-17T03:09:18.772Z,10.8
2017-03-17T03:10:20.621Z,10.9
2017-03-17T03:11:22.473Z,10.9
2017-03-17T03:12:24.352Z,10.9
2017-03-17T03:13:26.204Z,10.9
2017-03-17T03:14:28.396Z,10.9
2017-03-17T03:15:30.248Z,10.9
2017-03-17T03:16:32.114Z,10.9
2017-03-17T03:17:34.320Z,10.9
2017-03-17T03:18:36.176Z,10.9
2017-03-17T03:19:38.376Z,10.9
2017-03-17T03:20:40.237Z,10.9
2017-03-17T03:21:42.092Z,11
2017-03-17T03:22:43.940Z,11
2017-03-17T03:23:46.124Z,11
2017-03-17T03:24:48.330Z,11
2017-03-17T03:25:50.180Z,11
2017-03-17T03:26:52.032Z,11
2017-03-17T03:27:54.228Z,11.1
2017-03-17T03:28:56.093Z,11.1
2017-03-17T03:29:57.952Z,11.1
2017-03-17T03:30:59.816Z,11.1
2017-03-17T03:32:01.668Z,11.1
2017-03-17T03:33:03.515Z,11.1
2017-03-17T03:34:05.367Z,11.2
2017-03-17T03:35:07.227Z,11.1
2017-03-17T03:36:09.089Z,11.2
2017-03-17T03:37:10.952Z,11.2
2017-03-17T03:38:12.790Z,11.2
2017-03-17T03:39:14.651Z,11.2
2017-03-17T03:40:16.500Z,11.2
2017-03-17T03:41:18.355Z,11.2
2017-03-17T03:42:20.209Z,11.2
2017-03-17T03:43:22.390Z,11.2
2017-03-17T03:44:24.236Z,11.2
2017-03-17T03:45:26.100Z,11.2
2017-03-17T03:46:27.946Z,11.2
2017-03-17T03:47:29.799Z,11.3
2017-03-17T03:48:31.989Z,11.3
2017-03-17T03:49:34.200Z,11.3
2017-03-17T03:50:36.048Z,11.3
2017-03-17T03:51:37.905Z,11.3
2017-03-17T03:52:39.761Z,11.3
2017-03-17T03:53:41.647Z,11.4
2017-03-17T03:54:44.187Z,11.4
2017-03-17T03:55:46.069Z,11.4
2017-03-17T03:56:47.918Z,11.4
2017-03-17T03:57:50.132Z,11.4
2017-03-17T03:58:52.328Z,11.4
2017-03-17T03:59:54.526Z,11.4
2017-03-17T04:00:56.373Z,11.4
2017-03-17T04:01:58.246Z,11.4
2017-03-17T04:03:00.441Z,11.4
2017-03-17T04:04:02.636Z,11.4
2017-03-17T04:05:04.494Z,11.4
2017-03-17T04:06:06.339Z,11.4
2017-03-17T04:07:08.525Z,11.4
2017-03-17T04:08:10.379Z,11.4
2017-03-17T04:09:12.231Z,11.4
2017-03-17T04:10:14.423Z,11.4
2017-03-17T04:11:16.279Z,11.4
2017-03-17T04:12:18.134Z,11.4
2017-03-17T04:13:20.675Z,11.4
2017-03-17T04:14:22.534Z,11.4
2017-03-17T04:15:24.389Z,11.4
2017-03-17T04:16:26.238Z,11.4
2017-03-17T04:17:28.097Z,11.4
2017-03-17T04:18:29.952Z,11.4
2017-03-17T04:19:32.153Z,11.4
2017-03-17T04:20:34.005Z,11.5
2017-03-17T04:21:35.855Z,11.4
2017-03-17T04:22:37.702Z,11.5
2017-03-17T04:23:39.892Z,11.4
2017-03-17T04:24:42.079Z,11.4
2017-03-17T04:25:43.934Z,11.4
2017-03-17T04:26:45.786Z,11.4
2017-03-17T04:27:47.979Z,11.5
2017-03-17T04:28:50.193Z,11.5
2017-03-17T04:29:52.391Z,11.4
2017-03-17T04:30:54.269Z,11.4
2017-03-17T04:31:56.454Z,11.4
2017-03-17T04:32:58.662Z,11.5
2017-03-17T04:34:00.520Z,11.5
2017-03-17T04:35:02.380Z,11.5
2017-03-17T04:36:04.222Z,11.5
2017-03-17T04:37:06.077Z,11.5
2017-03-17T04:38:07.928Z,11.5
2017-03-17T04:39:10.137Z,11.5
2017-03-17T04:40:11.976Z,11.5
2017-03-17T04:41:14.163Z,11.5
2017-03-17T04:42:16.013Z,11.5
2017-03-17T04:43:17.902Z,11.5
2017-03-17T04:44:20.095Z,11.5
2017-03-17T04:45:21.942Z,11.5
2017-03-17T04:46:23.785Z,11.5
2017-03-17T04:47:25.991Z,11.5
2017-03-17T04:48:28.186Z,11.5
2017-03-17T04:49:30.084Z,11.5
2017-03-17T04:50:31.935Z,11.5
2017-03-17T04:51:33.788Z,11.4
2017-03-17T04:52:35.640Z,11.5
2017-03-17T04:53:37.838Z,11.5
2017-03-17T04:54:40.039Z,11.5
2017-03-17T04:55:41.903Z,11.5
2017-03-17T04:56:44.094Z,11.5
2017-03-17T04:57:45.950Z,11.5
2017-03-17T04:58:47.799Z,11.5
2017-03-17T04:59:49.651Z,11.4
2017-03-17T05:00:51.855Z,11.4
2017-03-17T05:01:53.708Z,11.4
2017-03-17T05:02:55.559Z,11.4
2017-03-17T05:03:57.413Z,11.4
2017-03-17T05:04:59.621Z,11.4
2017-03-17T05:06:01.477Z,11.4
2017-03-17T05:07:03.329Z,11.4
2017-03-17T05:08:05.189Z,11.4
2017-03-17T05:09:07.371Z,11.4
2017-03-17T05:10:09.224Z,11.4
2017-03-17T05:11:11.071Z,11.4
2017-03-17T05:12:12.928Z,11.4
2017-03-17T05:13:14.770Z,11.3
2017-03-17T05:14:16.971Z,11.3
2017-03-17T05:15:18.816Z,11.3
2017-03-17T05:16:20.675Z,11.3
2017-03-17T05:17:22.534Z,11.3
2017-03-17T05:18:24.385Z,11.3
2017-03-17T05:19:26.234Z,11.3
2017-03-17T05:20:28.114Z,11.3
2017-03-17T05:21:29.968Z,11.3
2017-03-17T05:22:31.814Z,11.3
2017-03-17T05:23:33.671Z,11.3
2017-03-17T05:24:35.562Z,11.3
2017-03-17T05:25:37.413Z,11.4
2017-03-17T05:26:39.607Z,11.4
2017-03-17T05:27:41.799Z,11.3
2017-03-17T05:28:43.689Z,11.4
2017-03-17T05:29:45.884Z,11.3
2017-03-17T05:30:48.078Z,11.3
2017-03-17T05:31:49.920Z,11.3
2017-03-17T05:32:51.798Z,11.3
2017-03-17T05:33:53.650Z,11.3
2017-03-17T05:34:55.524Z,11.3
2017-03-17T05:35:57.740Z,11.3
2017-03-17T05:36:59.704Z,11.3
2017-03-17T05:38:01.892Z,11.3
2017-03-17T05:39:04.428Z,11.3
2017-03-17T05:40:06.286Z,11.3
2017-03-17T05:41:08.492Z,11.3
2017-03-17T05:42:10.352Z,11.3
2017-03-17T05:43:12.546Z,11.3
2017-03-17T05:44:14.748Z,11.3
2017-03-17T05:45:16.598Z,11.3
2017-03-17T05:46:18.798Z,11.3
2017-03-17T05:47:20.983Z,11.3
2017-03-17T05:48:22.844Z,11.3
2017-03-17T05:49:24.696Z,11.3
2017-03-17T05:50:26.543Z,11.3
2017-03-17T05:51:28.397Z,11.4
2017-03-17T05:52:30.250Z,11.3
2017-03-17T05:53:32.107Z,11.3
2017-03-17T05:54:33.960Z,11.4
2017-03-17T05:55:35.804Z,11.4
2017-03-17T05:56:37.655Z,11.3
2017-03-17T05:57:39.887Z,11.4
2017-03-17T05:58:42.080Z,11.4
2017-03-17T05:59:43.936Z,11.4
2017-03-17T06:00:45.778Z,11.4
2017-03-17T06:01:47.639Z,11.4
2017-03-17T06:02:49.485Z,11.4
2017-03-17T06:03:51.338Z,11.4
2017-03-17T06:04:54.220Z,11.4
2017-03-17T06:05:56.415Z,11.4
2017-03-17T06:06:58.281Z,11.4
2017-03-17T06:08:00.126Z,11.4
2017-03-17T06:09:01.977Z,11.4
2017-03-17T06:10:04.195Z,11.4
2017-03-17T06:11:06.043Z,11.4
2017-03-17T06:12:08.238Z,11.4
2017-03-17T06:13:10.802Z,11.5
2017-03-17T06:14:12.995Z,11.5
2017-03-17T06:15:14.849Z,11.5
2017-03-17T06:16:16.702Z,11.5
2017-03-17T06:17:18.556Z,11.5
2017-03-17T06:18:20.407Z,11.5
2017-03-17T06:19:22.616Z,11.5
2017-03-17T06:20:24.469Z,11.5
2017-03-17T06:21:26.316Z,11.5
2017-03-17T06:22:28.167Z,11.5
2017-03-17T06:23:30.034Z,11.5
2017-03-17T06:24:32.575Z,11.6
2017-03-17T06:25:34.429Z,11.5
2017-03-17T06:26:36.622Z,11.5
2017-03-17T06:27:38.471Z,11.6
2017-03-17T06:28:40.687Z,11.6
2017-03-17T06:29:42.545Z,11.6
2017-03-17T06:30:44.399Z,11.6
2017-03-17T06:31:46.240Z,11.6
2017-03-17T06:32:48.444Z,11.5
2017-03-17T06:33:50.647Z,11.6
2017-03-17T06:34:52.847Z,11.5
2017-03-17T06:35:54.703Z,11.5
2017-03-17T06:36:56.558Z,11.5
2017-03-17T06:37:58.408Z,11.5
2017-03-17T06:39:00.268Z,11.5
2017-03-17T06:40:02.123Z,11.5
2017-03-17T06:41:03.971Z,11.5
2017-03-17T06:42:05.822Z,11.5
2017-03-17T06:43:07.679Z,11.5
2017-03-17T06:44:09.533Z,11.5
2017-03-17T06:45:11.715Z,11.4
2017-03-17T06:46:13.902Z,11.4
2017-03-17T06:47:15.745Z,11.4
2017-03-17T06:48:17.619Z,11.4
2017-03-17T06:49:19.477Z,11.4
2017-03-17T06:50:21.723Z,11.4
2017-03-17T06:51:23.576Z,11.4
2017-03-17T06:52:25.424Z,11.3
2017-03-17T06:53:27.275Z,11.3
2017-03-17T06:54:29.457Z,11.3
2017-03-17T06:55:31.306Z,11.3
2017-03-17T06:56:33.160Z,11.3
2017-03-17T06:57:35.354Z,11.3
2017-03-17T06:58:37.895Z,11.3
2017-03-17T06:59:39.749Z,11.3
2017-03-17T07:00:41.607Z,11.3
2017-03-17T07:01:43.457Z,11.3
2017-03-17T07:02:45.307Z,11.3
2017-03-17T07:03:48.171Z,11.3
2017-03-17T07:04:50.710Z,11.3
2017-03-17T07:05:52.562Z,11.3
2017-03-17T07:06:54.419Z,11.3
2017-03-17T07:07:56.643Z,11.3
2017-03-17T07:08:58.518Z,11.3
2017-03-17T07:10:00.706Z,11.4
2017-03-17T07:11:02.562Z,11.4
2017-03-17T07:12:04.404Z,11.4
2017-03-17T07:13:06.596Z,11.5
2017-03-17T07:14:08.791Z,11.5
2017-03-17T07:15:10.647Z,11.5
2017-03-17T07:16:12.507Z,11.5
2017-03-17T07:17:14.361Z,11.6
2017-03-17T07:18:16.224Z,11.6
2017-03-17T07:19:18.093Z,11.6
2017-03-17T07:20:20.283Z,11.6
2017-03-17T07:21:22.143Z,11.6
2017-03-17T07:22:23.986Z,11.6
2017-03-17T07:23:26.181Z,11.6
2017-03-17T07:24:28.026Z,11.6
2017-03-17T07:25:30.566Z,11.6
2017-03-17T07:26:32.420Z,11.7
2017-03-17T07:27:34.278Z,11.7
2017-03-17T07:28:37.140Z,11.7
2017-03-17T07:29:39.350Z,11.7
2017-03-17T07:30:41.198Z,11.7
2017-03-17T07:31:43.053Z,11.7
2017-03-17T07:32:45.245Z,11.7
2017-03-17T07:33:47.789Z,11.8
2017-03-17T07:34:49.989Z,11.8
2017-03-17T07:35:51.847Z,11.8
2017-03-17T07:36:53.714Z,11.8
2017-03-17T07:37:55.914Z,11.8
2017-03-17T07:38:58.117Z,11.8
2017-03-17T07:39:59.988Z,11.8
2017-03-17T07:41:01.836Z,11.8
2017-03-17T07:42:03.696Z,11.8
2017-03-17T07:43:06.234Z,11.9
2017-03-17T07:44:08.111Z,11.9
2017-03-17T07:45:09.961Z,11.9
2017-03-17T07:46:11.806Z,11.9
2017-03-17T07:47:13.652Z,11.9
2017-03-17T07:48:15.508Z,11.8
2017-03-17T07:49:17.699Z,11.8
2017-03-17T07:50:19.918Z,11.9
2017-03-17T07:51:21.763Z,11.9
2017-03-17T07:52:23.619Z,11.9
2017-03-17T07:53:26.484Z,11.9
2017-03-17T07:54:28.344Z,11.9
2017-03-17T07:55:30.551Z,11.9
2017-03-17T07:56:32.404Z,11.9
2017-03-17T07:57:34.267Z,11.9
2017-03-17T07:58:36.128Z,11.9
2017-03-17T07:59:37.989Z,11.9
2017-03-17T08:00:40.180Z,12
2017-03-17T08:01:42.034Z,12
2017-03-17T08:02:43.903Z,12
2017-03-17T08:03:45.765Z,12
2017-03-17T08:04:47.966Z,12
2017-03-17T08:05:49.817Z,12.1
2017-03-17T08:06:51.671Z,12.1
2017-03-17T08:07:53.872Z,12.1
2017-03-17T08:08:56.073Z,12.2
2017-03-17T08:09:58.266Z,12.2
2017-03-17T08:11:00.478Z,12.1
2017-03-17T08:12:02.680Z,12.2
2017-03-17T08:13:04.891Z,12.2
2017-03-17T08:14:06.749Z,12.2
2017-03-17T08:15:08.628Z,12.2
2017-03-17T08:16:10.479Z,12.3
2017-03-17T08:17:12.334Z,12.3
2017-03-17T08:18:14.527Z,12.4
2017-03-17T08:19:16.731Z,12.4
2017-03-17T08:20:18.926Z,12.5
2017-03-17T08:21:20.783Z,12.6
2017-03-17T08:22:22.628Z,12.7
2017-03-17T08:23:25.152Z,12.8
2017-03-17T08:24:27.695Z,12.9
2017-03-17T08:25:29.899Z,13.1
2017-03-17T08:26:32.117Z,13.3
2017-03-17T08:27:33.967Z,13.4
2017-03-17T08:28:36.160Z,13.5
2017-03-17T08:29:38.015Z,13.5
2017-03-17T08:30:40.217Z,13.6
2017-03-17T08:31:42.066Z,13.7
2017-03-17T08:32:43.925Z,13.8
2017-03-17T08:33:45.792Z,13.9
2017-03-17T08:34:47.986Z,13.9
2017-03-17T08:35:49.849Z,13.9
2017-03-17T08:36:51.725Z,14
2017-03-17T08:37:53.912Z,14
2017-03-17T08:38:55.788Z,14
2017-03-17T08:39:57.647Z,14.1
2017-03-17T08:40:59.511Z,14.2
2017-03-17T08:42:01.355Z,14.3
2017-03-17T08:43:03.574Z,14.3
2017-03-17T08:44:05.800Z,14.3
2017-03-17T08:45:07.645Z,14.3
2017-03-17T08:46:09.502Z,14.4
2017-03-17T08:47:11.346Z,14.5
2017-03-17T08:48:13.213Z,14.7
2017-03-17T08:49:15.069Z,14.8
2017-03-17T08:50:16.938Z,14.9
2017-03-17T08:51:18.807Z,15.1
2017-03-17T08:52:20.659Z,15.1
2017-03-17T08:53:22.531Z,15.2
2017-03-17T08:54:24.391Z,15.3
2017-03-17T08:55:26.273Z,15.4
2017-03-17T08:56:28.156Z,15.5
2017-03-17T08:57:30.014Z,15.5
2017-03-17T08:58:31.871Z,15.5
2017-03-17T08:59:33.728Z,15.6
2017-03-17T09:00:35.590Z,15.6
2017-03-17T09:01:37.448Z,15.5
2017-03-17T09:02:39.309Z,15.5
2017-03-17T09:03:41.167Z,15.4
2017-03-17T09:04:43.352Z,15.3
2017-03-17T09:05:45.209Z,15.3
2017-03-17T09:06:47.065Z,15.3
2017-03-17T09:07:49.268Z,15.1
2017-03-17T09:08:51.456Z,15.1
2017-03-17T09:09:53.655Z,15
2017-03-17T09:10:55.516Z,14.9
2017-03-17T09:11:57.366Z,14.9
2017-03-17T09:12:59.223Z,14.8
2017-03-17T09:14:01.080Z,14.8
2017-03-17T09:15:02.929Z,14.8
2017-03-17T09:16:04.796Z,14.8
2017-03-17T09:17:06.648Z,14.7
2017-03-17T09:18:08.502Z,14.7
2017-03-17T09:19:10.354Z,14.6
2017-03-17T09:20:12.218Z,14.5
2017-03-17T09:21:14.063Z,14.5
2017-03-17T09:22:15.918Z,14.4
2017-03-17T09:23:17.801Z,14.4
2017-03-17T09:24:20.011Z,14.4
2017-03-17T09:25:22.208Z,14.4
2017-03-17T09:26:24.070Z,14.5
2017-03-17T09:27:25.924Z,14.5
2017-03-17T09:28:27.772Z,14.5
2017-03-17T09:29:29.634Z,14.5
2017-03-17T09:30:31.828Z,14.6
2017-03-17T09:31:33.685Z,14.6
2017-03-17T09:32:35.556Z,14.6
2017-03-17T09:33:37.756Z,14.7
2017-03-17T09:34:39.619Z,14.6
2017-03-17T09:35:41.469Z,14.6
2017-03-17T09:36:43.328Z,14.6
2017-03-17T09:37:45.191Z,14.6
2017-03-17T09:38:47.060Z,14.6
2017-03-17T09:39:48.920Z,14.7
2017-03-17T09:40:50.780Z,14.6
2017-03-17T09:41:52.636Z,14.6
2017-03-17T09:42:54.488Z,14.6
2017-03-17T09:43:56.356Z,14.6
2017-03-17T09:44:58.257Z,14.5
2017-03-17T09:46:00.107Z,14.5
2017-03-17T09:47:01.972Z,14.5
2017-03-17T09:48:03.829Z,14.4
2017-03-17T09:49:05.685Z,14.4
2017-03-17T09:50:07.536Z,14.4
2017-03-17T09:51:09.393Z,14.4
2017-03-17T09:52:11.244Z,14.3
2017-03-17T09:53:13.109Z,14.3
2017-03-17T09:54:14.964Z,14.3
2017-03-17T09:55:17.501Z,14.3
2017-03-17T09:56:19.348Z,14.3
2017-03-17T09:57:21.211Z,14.4
2017-03-17T09:58:23.406Z,14.4
2017-03-17T09:59:25.947Z,14.4
2017-03-17T10:00:27.801Z,14.4
2017-03-17T10:01:29.674Z,14.4
2017-03-17T10:02:31.548Z,14.4
2017-03-17T10:03:33.409Z,14.3
2017-03-17T10:04:35.256Z,14.3
2017-03-17T10:05:37.118Z,14.2
2017-03-17T10:06:38.982Z,14.2
2017-03-17T10:07:40.836Z,14.1
2017-03-17T10:08:42.691Z,14.1
2017-03-17T10:09:44.547Z,14
2017-03-17T10:10:46.403Z,14
2017-03-17T10:11:48.248Z,14
2017-03-17T10:12:50.100Z,14
2017-03-17T10:13:51.967Z,13.9
2017-03-17T10:14:54.186Z,13.9
2017-03-17T10:15:56.044Z,14
2017-03-17T10:16:57.900Z,14
2017-03-17T10:17:59.750Z,13.9
2017-03-17T10:19:01.602Z,13.9
2017-03-17T10:20:03.798Z,13.9
2017-03-17T10:21:05.656Z,13.9
2017-03-17T10:22:07.858Z,13.9
2017-03-17T10:23:09.726Z,14
2017-03-17T10:24:11.578Z,14
2017-03-17T10:25:13.434Z,14
2017-03-17T10:26:15.284Z,14
2017-03-17T10:27:17.151Z,14
2017-03-17T10:28:19.013Z,14
2017-03-17T10:29:21.240Z,14.1
2017-03-17T10:30:23.105Z,14.1
2017-03-17T10:31:24.949Z,14.2
2017-03-17T10:32:26.816Z,14.3
2017-03-17T10:33:28.723Z,14.4
2017-03-17T10:34:30.568Z,14.4
2017-03-17T10:35:32.490Z,14.5
2017-03-17T10:36:34.368Z,14.6
2017-03-17T10:37:36.234Z,14.6
2017-03-17T10:38:38.104Z,14.7
2017-03-17T10:39:42.234Z,14.8
2017-03-17T10:40:44.105Z,14.9
2017-03-17T10:41:45.950Z,15
2017-03-17T10:42:47.872Z,15.1
2017-03-17T10:43:50.107Z,15.1
2017-03-17T10:44:52.023Z,15.2
2017-03-17T10:45:53.910Z,15.2
2017-03-17T10:46:55.868Z,15.2
2017-03-17T10:47:57.727Z,15.2
2017-03-17T10:48:59.661Z,15.2
2017-03-17T10:50:01.898Z,15.1
2017-03-17T10:51:03.780Z,15
2017-03-17T10:52:05.732Z,14.9
2017-03-17T10:53:07.590Z,14.8
2017-03-17T10:54:09.819Z,14.7
2017-03-17T10:55:12.048Z,14.6
2017-03-17T10:56:13.899Z,14.6
2017-03-17T10:57:16.124Z,14.6
2017-03-17T10:58:18.009Z,14.6
2017-03-17T10:59:19.877Z,14.7
2017-03-17T11:00:21.741Z,14.7
2017-03-17T11:01:23.602Z,14.7
2017-03-17T11:02:25.529Z,14.8
2017-03-17T11:03:27.731Z,14.8
2017-03-17T11:04:29.576Z,14.8
2017-03-17T11:05:31.509Z,14.8
2017-03-17T11:06:33.425Z,14.8
2017-03-17T11:07:35.629Z,14.7
2017-03-17T11:08:38.196Z,14.7
2017-03-17T11:09:40.054Z,14.6
2017-03-17T11:10:41.915Z,14.6
2017-03-17T11:11:44.127Z,14.6
2017-03-17T11:12:46.367Z,14.6
2017-03-17T11:13:48.602Z,14.6
2017-03-17T11:14:50.460Z,14.6
2017-03-17T11:15:52.325Z,14.7
2017-03-17T11:16:54.182Z,14.8
2017-03-17T11:17:56.509Z,14.9
2017-03-17T11:18:58.379Z,15
2017-03-17T11:20:00.635Z,15.2
2017-03-17T11:21:02.490Z,15.5
2017-03-17T11:22:04.340Z,15.8
2017-03-17T11:23:06.292Z,16.1
2017-03-17T11:24:08.173Z,16.3
2017-03-17T11:25:10.028Z,16.5
2017-03-17T11:26:11.885Z,16.7
2017-03-17T11:27:13.735Z,16.9
2017-03-17T11:28:15.943Z,17
2017-03-17T11:29:17.811Z,17.1
2017-03-17T11:30:20.038Z,17.2
2017-03-17T11:31:21.897Z,17.4
2017-03-17T11:32:23.775Z,17.4
2017-03-17T11:33:26.133Z,17.6
2017-03-17T11:34:28.523Z,17.7
2017-03-17T11:35:30.384Z,17.9
2017-03-17T11:36:32.583Z,18
2017-03-17T11:37:34.521Z,18.1
2017-03-17T11:38:36.385Z,18.2
2017-03-17T11:39:38.264Z,18.3
2017-03-17T11:40:40.116Z,18.3
2017-03-17T11:41:42.006Z,18.3
2017-03-17T11:42:43.882Z,18.3
2017-03-17T11:43:45.763Z,18.3
2017-03-17T11:44:47.991Z,18.2
2017-03-17T11:45:49.845Z,18.2
2017-03-17T11:46:51.724Z,18.1
2017-03-17T11:47:53.602Z,18
2017-03-17T11:48:56.174Z,17.9
2017-03-17T11:49:58.371Z,17.8
2017-03-17T11:51:00.249Z,17.8
2017-03-17T11:52:02.329Z,17.8
2017-03-17T11:53:04.196Z,17.9
2017-03-17T11:54:06.638Z,18
2017-03-17T11:55:08.610Z,18
2017-03-17T11:56:10.462Z,17.9
2017-03-17T11:57:12.332Z,17.7
2017-03-17T11:58:14.193Z,17.5
2017-03-17T11:59:16.493Z,17.5
2017-03-17T12:00:18.357Z,17.4
2017-03-17T12:01:20.219Z,17.4
2017-03-17T12:02:22.413Z,17.4
2017-03-17T12:03:24.615Z,17.4
2017-03-17T12:04:26.472Z,17.5
2017-03-17T12:05:28.343Z,17.5
2017-03-17T12:06:30.196Z,17.5
2017-03-17T12:07:32.336Z,17.4
2017-03-17T12:08:34.282Z,17.4
2017-03-17T12:09:36.188Z,17.2
2017-03-17T12:10:38.055Z,17.1
2017-03-17T12:11:40.511Z,17
2017-03-17T12:12:45.167Z,16.8
2017-03-17T12:13:47.279Z,16.7
2017-03-17T12:14:49.154Z,16.7
2017-03-17T12:15:51.008Z,16.7
2017-03-17T12:16:52.869Z,16.7
2017-03-17T12:17:54.784Z,16.7
2017-03-17T12:18:56.687Z,16.7
2017-03-17T12:19:58.905Z,16.6
2017-03-17T12:21:00.772Z,16.6
2017-03-17T12:22:03.105Z,16.6
2017-03-17T12:23:05.316Z,16.5
2017-03-17T12:24:07.176Z,16.4
2017-03-17T12:25:09.056Z,16.3
2017-03-17T12:26:10.970Z,16.2
2017-03-17T12:27:13.011Z,16.1
2017-03-17T12:28:14.892Z,16.1
2017-03-17T12:29:16.772Z,16
2017-03-17T12:30:18.756Z,15.9
2017-03-17T12:31:21.142Z,15.8
2017-03-17T12:32:22.997Z,15.8
2017-03-17T12:33:25.265Z,15.7
2017-03-17T12:34:28.275Z,15.7
2017-03-17T12:35:30.496Z,15.7
2017-03-17T12:36:32.412Z,15.7
2017-03-17T12:37:34.690Z,15.7
2017-03-17T12:38:38.709Z,15.7
2017-03-17T12:39:43.247Z,15.7
2017-03-17T12:40:47.848Z,15.7
2017-03-17T12:41:51.716Z,15.7
2017-03-17T12:42:56.082Z,15.7
2017-03-17T12:44:01.468Z,15.7
2017-03-17T12:45:05.720Z,15.7
2017-03-17T12:46:07.583Z,15.6
2017-03-17T12:47:09.458Z,15.5
2017-03-17T12:48:11.307Z,15.5
2017-03-17T12:49:13.713Z,15.4
2017-03-17T12:50:15.561Z,15.4
2017-03-17T12:51:17.430Z,15.3
2017-03-17T12:52:19.641Z,15.3
2017-03-17T12:53:21.845Z,15.2
2017-03-17T12:54:23.725Z,15.1
2017-03-17T12:55:25.916Z,15
2017-03-17T12:56:27.779Z,14.9
2017-03-17T12:57:29.657Z,14.8
2017-03-17T12:58:31.811Z,14.7
2017-03-17T12:59:33.674Z,14.6
2017-03-17T13:00:35.541Z,14.6
2017-03-17T13:01:37.406Z,14.6
2017-03-17T13:02:39.281Z,14.6
2017-03-17T13:03:41.195Z,14.6
2017-03-17T13:04:43.062Z,14.6
2017-03-17T13:05:44.944Z,14.5
2017-03-17T13:06:46.833Z,14.5
2017-03-17T13:07:48.908Z,14.5
2017-03-17T13:08:50.765Z,14.5
2017-03-17T13:09:52.725Z,14.5
2017-03-17T13:10:54.593Z,14.4
2017-03-17T13:11:56.464Z,14.4
2017-03-17T13:12:58.356Z,14.4
2017-03-17T13:14:00.569Z,14.3
2017-03-17T13:15:02.429Z,14.2
2017-03-17T13:16:04.291Z,14.2
2017-03-17T13:17:06.155Z,14.1
2017-03-17T13:18:08.024Z,14.1
2017-03-17T13:19:10.090Z,14.1
2017-03-17T13:20:12.153Z,14.1
2017-03-17T13:21:14.014Z,14
2017-03-17T13:22:15.870Z,14
2017-03-17T13:23:17.854Z,14
2017-03-17T13:24:20.404Z,13.9
2017-03-17T13:25:22.272Z,13.9
2017-03-17T13:26:24.129Z,13.9
2017-03-17T13:27:26.415Z,13.9
2017-03-17T13:28:28.276Z,13.8
2017-03-17T13:29:30.495Z,13.8
2017-03-17T13:30:32.352Z,13.9
2017-03-17T13:31:34.205Z,13.9
2017-03-17T13:32:36.069Z,13.9
2017-03-17T13:33:37.942Z,13.9
2017-03-17T13:34:39.795Z,13.9
2017-03-17T13:35:41.828Z,13.8
2017-03-17T13:36:43.684Z,13.8
2017-03-17T13:37:45.561Z,13.9
2017-03-17T13:38:47.763Z,13.9
2017-03-17T13:39:49.771Z,13.8
2017-03-17T13:40:51.620Z,13.8
2017-03-17T13:41:53.502Z,13.8
2017-03-17T13:42:55.698Z,13.8
2017-03-17T13:43:57.553Z,13.8
2017-03-17T13:45:00.471Z,13.7
2017-03-17T13:46:02.335Z,13.7
2017-03-17T13:47:04.192Z,13.6
2017-03-17T13:48:06.064Z,13.6
2017-03-17T13:49:07.940Z,13.5
2017-03-17T13:50:10.165Z,13.4